createdAt,value
2022-08-23T08:09:02.798Z,100038.06
2022-08-23T08:12:06.433Z,100039.53
2022-08-23T08:15:10.137Z,100043.47
2022-08-23T08:18:13.530Z,100045.88
2022-08-23T08:21:24.423Z,100040.34
2022-08-23T08:24:27.963Z,100045.06
2022-08-23T08:27:30.877Z,100038.69
2022-08-23T08:30:37.022Z,100047.94
2022-08-23T08:33:40.573Z,100041.03
2022-08-23T08:36:49.533Z,100043.81
2022-08-23T08:39:55.101Z,100049.63
2022-08-23T08:43:16.571Z,100060.75
2022-08-23T08:46:28.912Z,100051.75
2022-08-23T08:50:09.792Z,100067.91
2022-08-23T08:53:17.917Z,100081.91
2022-08-23T08:56:29.774Z,100074.22
2022-08-23T08:59:59.874Z,100066.16
2022-08-23T09:03:14.423Z,100081.69
2022-08-23T09:06:28.870Z,100077.87
2022-08-23T09:10:06.408Z,100090.53
2022-08-23T09:13:53.798Z,100089.16
2022-08-23T09:17:27.759Z,100084.84
2022-08-23T09:20:33.115Z,100087.56
2022-08-23T09:23:43.408Z,100096.56
2022-08-23T09:26:48.210Z,100087.75
2022-08-23T09:29:57.839Z,100078.97
2022-08-23T09:33:14.284Z,100072.19
2022-08-23T09:36:25.464Z,100072.06
2022-08-23T09:39:36.006Z,100076.12
2022-08-23T09:42:41.372Z,100078.94
2022-08-23T09:45:47.691Z,100075.56
2022-08-23T09:48:51.170Z,100080.59
2022-08-23T09:51:56.664Z,100080.63
2022-08-23T09:55:05.090Z,100090.16
2022-08-23T09:58:36.201Z,100073.25
2022-08-23T10:01:39.722Z,100080.47
2022-08-23T10:04:55.777Z,100077.09
2022-08-23T10:08:10.719Z,100074.06
2022-08-23T10:11:24.091Z,100079.12
2022-08-23T10:14:30.112Z,100071.56
2022-08-23T10:17:58.170Z,100081.59
2022-08-23T10:21:24.174Z,100079.38
2022-08-23T10:24:53.249Z,100079.47
2022-08-23T10:28:39.972Z,100089.47
2022-08-23T10:31:49.157Z,100085.06
2022-08-23T10:35:11.022Z,100073.88
2022-08-23T10:38:38.873Z,100072.13
2022-08-23T10:41:41.754Z,100083.44
2022-08-23T10:44:48.924Z,100078.59
2022-08-23T10:47:51.636Z,100080.97
2022-08-23T10:51:06.749Z,100079.12
2022-08-23T10:54:12.720Z,100083.31
2022-08-23T10:57:21.750Z,100083.03
2022-08-23T11:00:27.175Z,100087.31
2022-08-23T11:03:35.557Z,100085.13
2022-08-23T11:06:47.191Z,100081.44
2022-08-23T11:10:17.429Z,100083.78
2022-08-23T11:13:24.566Z,100077.66
2022-08-23T11:16:31.303Z,100079.38
2022-08-23T11:20:08.917Z,100074.66
2022-08-23T11:23:16.286Z,100076.16
2022-08-23T11:26:36.766Z,100076.94
2022-08-23T11:29:43.706Z,100078.66
2022-08-23T11:32:50.291Z,100077.34
2022-08-23T11:36:09.124Z,100075.94
2022-08-23T11:39:12.894Z,100079.44
2022-08-23T11:42:20.289Z,100067.84
2022-08-23T11:45:44.414Z,100067.63
2022-08-23T11:49:15.992Z,100069.22
2022-08-23T11:52:47.661Z,100071.88
2022-08-23T11:56:13.573Z,100068.34
2022-08-23T11:59:38.509Z,100072.41
2022-08-23T12:03:01.952Z,100067.03
2022-08-23T12:06:10.291Z,100070.28
2022-08-23T12:09:24.393Z,100073.75
2022-08-23T12:12:34.814Z,100077.19
2022-08-23T12:16:16.720Z,100082.25
2022-08-23T12:19:29.509Z,100075.91
2022-08-23T12:23:00.388Z,100078.88
2022-08-23T12:26:29.215Z,100084.75
2022-08-23T12:30:07.190Z,100077.97
2022-08-23T12:33:57.983Z,100072.94
2022-08-23T12:37:08.882Z,100073.38
2022-08-23T12:40:21.499Z,100074.37
2022-08-23T12:43:29.095Z,100080.66
2022-08-23T12:46:32.159Z,100075.03
2022-08-23T12:49:35.815Z,100077.75
2022-08-23T12:52:40.633Z,100079.31
2022-08-23T12:55:51.124Z,100086.00
2022-08-23T12:58:59.931Z,100085.19
2022-08-23T13:02:08.806Z,100082.09
2022-08-23T13:05:32.063Z,100085.69
2022-08-23T13:08:43.071Z,100078.53
2022-08-23T13:11:47.495Z,100082.59
2022-08-23T13:14:52.708Z,100082.56
2022-08-23T13:18:31.300Z,100077.56
2022-08-23T13:21:36.995Z,100073.75
2022-08-23T13:24:45.899Z,100078.34
2022-08-23T13:27:48.531Z,100077.47
2022-08-23T13:31:04.587Z,100075.28
2022-08-23T13:34:09.679Z,100076.69
2022-08-23T13:37:23.856Z,100083.50
2022-08-23T13:40:33.353Z,100077.53
2022-08-23T13:43:48.043Z,100072.56
2022-08-23T13:46:52.366Z,100074.84
2022-08-23T13:49:58.797Z,100080.16
2022-08-23T13:53:14.366Z,100084.50
2022-08-23T13:56:27.247Z,100074.53
2022-08-23T13:59:56.088Z,100071.94
2022-08-23T14:02:58.961Z,100071.03
2022-08-23T14:06:01.876Z,100077.63
2022-08-23T14:09:06.646Z,100087.09
2022-08-23T14:12:27.939Z,100081.91
2022-08-23T14:22:17.876Z,100083.44
2022-08-23T14:25:23.573Z,100090.03
2022-08-23T14:28:30.052Z,100084.47
2022-08-23T14:31:33.922Z,100079.12
2022-08-23T14:34:37.047Z,100084.69
2022-08-23T14:41:06.914Z,100091.19
2022-08-23T14:44:10.381Z,100096.78
2022-08-23T14:47:13.410Z,100079.78
2022-08-23T14:50:28.757Z,100077.91
2022-08-23T14:53:37.379Z,100077.13
2022-08-23T14:57:16.803Z,100077.00
2022-08-23T15:00:28.616Z,100070.47
2022-08-23T15:03:32.784Z,100063.16
2022-08-23T15:07:06.811Z,100062.81
2022-08-23T15:10:10.158Z,100063.09
2022-08-23T15:13:21.790Z,100059.75
2022-08-23T15:16:29.793Z,100056.31
2022-08-23T15:19:32.547Z,100064.84
2022-08-23T15:22:39.992Z,100054.59
2022-08-23T15:25:47.790Z,100067.28
2022-08-23T15:28:52.359Z,100065.69
2022-08-23T15:31:55.621Z,100065.34
2022-08-23T15:34:59.968Z,100069.25
2022-08-23T15:38:05.618Z,100071.47
2022-08-23T15:41:22.146Z,100064.50
2022-08-23T15:44:25.008Z,100070.87
2022-08-23T15:47:31.254Z,100066.16
2022-08-23T15:50:35.072Z,100064.34
2022-08-23T15:53:40.262Z,100070.47
2022-08-23T15:57:12.410Z,100068.88
2022-08-23T16:00:29.543Z,100073.63
2022-08-23T16:04:12.856Z,100073.28
2022-08-23T16:07:17.941Z,100075.84
2022-08-23T16:10:30.794Z,100078.03
2022-08-23T16:17:55.762Z,100085.69
2022-08-23T16:20:58.464Z,100080.53
2022-08-23T16:24:01.817Z,100086.16
2022-08-23T16:27:06.727Z,100086.09
2022-08-23T16:30:13.198Z,100084.84
2022-08-23T16:33:16.015Z,100079.81
2022-08-23T16:36:19.663Z,100071.97
2022-08-23T16:39:24.360Z,100080.00
2022-08-23T16:42:27.355Z,100079.53
2022-08-23T16:45:30.109Z,100077.25
2022-08-23T16:48:33.902Z,100076.69
2022-08-23T16:51:37.110Z,100079.16
2022-08-23T16:54:40.407Z,100083.44
2022-08-23T16:57:43.138Z,100082.16
2022-08-23T17:00:46.200Z,100084.25
2022-08-23T17:03:49.175Z,100087.97
2022-08-23T17:06:54.108Z,100096.75
2022-08-23T17:09:56.824Z,100097.03
2022-08-23T17:13:00.630Z,100099.00
2022-08-23T17:16:03.635Z,100107.69
2022-08-23T17:19:07.659Z,100111.81
2022-08-23T17:22:11.084Z,100116.28
2022-08-23T17:25:15.192Z,100116.47
2022-08-23T17:28:18.367Z,100128.37
2022-08-23T17:31:21.399Z,100130.25
2022-08-23T17:34:24.240Z,100137.44
2022-08-23T17:37:27.661Z,100139.22
2022-08-23T17:40:50.453Z,100127.75
2022-08-23T17:43:58.295Z,100138.41
2022-08-23T17:47:03.000Z,100145.28
2022-08-23T17:50:09.994Z,100148.28
2022-08-23T17:53:15.228Z,100146.97
2022-08-23T17:56:18.307Z,100159.09
2022-08-23T17:59:21.843Z,100162.94
2022-08-23T18:02:24.917Z,100160.69
2022-08-23T18:05:29.955Z,100174.47
2022-08-23T18:08:32.691Z,100180.03
2022-08-23T18:11:36.211Z,100177.25
2022-08-23T18:14:39.261Z,100181.78
2022-08-23T18:17:42.742Z,100187.09
2022-08-23T18:20:45.615Z,100200.06
2022-08-23T18:23:49.792Z,100203.88
2022-08-23T18:27:11.161Z,100219.09
2022-08-23T18:30:14.420Z,100208.16
2022-08-23T18:33:20.035Z,100215.28
2022-08-23T18:36:30.323Z,100212.91
2022-08-23T18:39:53.191Z,100224.22
2022-08-23T18:42:56.720Z,100229.50
2022-08-23T18:46:00.254Z,100230.22
2022-08-23T18:49:04.172Z,100234.81
2022-08-23T18:52:07.404Z,100231.19
2022-08-23T18:55:10.642Z,100239.44
2022-08-23T18:58:13.419Z,100230.22
2022-08-23T19:01:28.168Z,100228.84
2022-08-23T19:04:31.194Z,100232.66
2022-08-23T19:07:34.658Z,100231.47
2022-08-23T19:10:37.997Z,100235.94
